Stamford, Vermont
Current Conditions -  °F | °C
As of 1:11 AM on Thursday 23 Oct 2014 (Local Time) from KAQW Reporting Station
Moderate Rain Moderate Rain  
Wind Chill: 48°   Ceiling: 3200
Heat Index: 48°   Visibility: 2mi
Dew Point: 46°   Wind: 0mph
Humidity: 93%   Direction: NA
Pressure: 29.89"   Gusts: NA
Location:  42.788°N, 73.0785°W
Report Text: KAQW 230511Z AUTO 00000KT 2SM RA BR FEW023 OVC032 09/08 A2989 RMK AO2 P0012 T00890078
Loading
Personal Weather Stations






























Interactive Weather Map
Tropical Storm Tracking
New forecast layout! Learn more

10-Day Weather Forecast

Advertisements
Track Severe Weather on mobile